createdAt,value
2022-08-22T00:00:32.975Z,10.00
2022-08-22T00:03:02.621Z,3.50
2022-08-22T00:06:09.787Z,7.75
2022-08-22T00:08:42.946Z,9.00
2022-08-22T00:11:15.864Z,9.50
2022-08-22T00:13:49.036Z,10.00
2022-08-22T00:16:33.002Z,7.75
2022-08-22T00:19:07.351Z,9.00
2022-08-22T00:21:39.544Z,4.00
2022-08-22T00:24:14.264Z,8.75
2022-08-22T00:26:45.720Z,9.50
2022-08-22T00:29:16.569Z,10.75
2022-08-22T00:31:48.366Z,6.75
2022-08-22T00:34:18.381Z,9.50
2022-08-22T00:36:48.116Z,7.25
2022-08-22T00:39:18.298Z,7.00
2022-08-22T00:41:56.890Z,9.50
2022-08-22T00:44:36.830Z,9.50
2022-08-22T00:47:15.508Z,7.00
2022-08-22T00:49:54.589Z,7.00
2022-08-22T00:52:33.345Z,9.50
2022-08-22T00:55:34.963Z,8.00
2022-08-22T00:58:26.470Z,9.25
2022-08-22T01:00:57.124Z,9.00
2022-08-22T01:03:54.453Z,9.00
2022-08-22T01:06:27.920Z,10.00
2022-08-22T01:09:02.524Z,10.00
2022-08-22T01:11:47.618Z,11.00
2022-08-22T01:14:35.007Z,10.25
2022-08-22T01:17:32.688Z,10.25
2022-08-22T01:20:38.853Z,10.00
2022-08-22T01:23:36.444Z,9.00
2022-08-22T01:26:46.069Z,9.00
2022-08-22T01:29:38.047Z,9.25
2022-08-22T01:33:01.011Z,9.25
2022-08-22T01:36:01.567Z,8.00
2022-08-22T01:38:44.989Z,9.50
2022-08-22T01:41:35.504Z,9.50
2022-08-22T01:44:13.344Z,8.00
2022-08-22T01:46:52.048Z,4.00
2022-08-22T01:49:22.265Z,9.25
2022-08-22T01:51:55.068Z,9.25
2022-08-22T01:54:32.292Z,10.50
2022-08-22T01:57:02.201Z,9.50
2022-08-22T01:59:36.297Z,12.00
2022-08-22T02:02:32.154Z,9.50
2022-08-22T02:05:02.965Z,9.75
2022-08-22T02:07:33.581Z,7.50
2022-08-22T02:10:07.719Z,9.00
2022-08-22T02:12:38.749Z,10.50
2022-08-22T02:15:13.854Z,11.00
2022-08-22T02:18:03.719Z,10.00
2022-08-22T02:20:34.032Z,8.00
2022-08-22T02:23:07.568Z,9.00
2022-08-22T02:25:47.015Z,11.00
2022-08-22T02:28:16.912Z,6.75
2022-08-22T02:30:48.060Z,10.00
2022-08-22T02:33:24.490Z,8.50
2022-08-22T02:35:54.527Z,12.75
2022-08-22T02:38:28.757Z,12.25
2022-08-22T02:41:04.955Z,9.50
2022-08-22T02:43:39.342Z,12.50
2022-08-22T02:46:15.759Z,11.00
2022-08-22T02:48:46.644Z,10.00
2022-08-22T02:51:20.592Z,10.00
2022-08-22T02:53:55.167Z,12.00
2022-08-22T02:56:25.801Z,9.50
2022-08-22T02:58:59.232Z,12.50
2022-08-22T03:01:40.757Z,12.00
2022-08-22T03:04:47.667Z,13.00
2022-08-22T03:07:23.642Z,10.00
2022-08-22T03:10:01.332Z,10.00
2022-08-22T03:12:33.225Z,10.00
2022-08-22T03:15:06.193Z,9.75
2022-08-22T03:17:36.246Z,10.00
2022-08-22T03:20:08.196Z,10.00
2022-08-22T03:22:41.610Z,13.00
2022-08-22T03:25:16.064Z,11.00
2022-08-22T03:27:49.823Z,9.50
2022-08-22T03:30:19.869Z,14.60
2022-08-22T03:32:49.251Z,15.00
2022-08-22T03:35:27.033Z,12.60
2022-08-22T03:37:58.030Z,14.60
2022-08-22T03:40:31.718Z,12.75
2022-08-22T03:43:24.916Z,10.00
2022-08-22T03:46:22.956Z,11.60
2022-08-22T03:49:28.981Z,12.50
2022-08-22T03:52:12.974Z,14.20
2022-08-22T03:55:00.547Z,10.00
2022-08-22T03:57:51.721Z,14.60
2022-08-22T04:00:48.329Z,15.80
2022-08-22T04:03:36.489Z,17.20
2022-08-22T04:06:37.306Z,10.00
2022-08-22T04:09:46.045Z,12.00
2022-08-22T04:12:48.828Z,12.60
2022-08-22T04:15:47.794Z,12.40
2022-08-22T04:18:28.107Z,13.40
2022-08-22T04:21:11.043Z,12.00
2022-08-22T04:24:02.034Z,10.00
2022-08-22T04:26:34.759Z,12.40
2022-08-22T04:29:05.384Z,11.60
2022-08-22T04:31:37.246Z,7.00
2022-08-22T04:34:07.427Z,12.80
2022-08-22T04:36:39.489Z,13.00
2022-08-22T04:39:10.114Z,11.20
2022-08-22T04:41:46.761Z,13.00
2022-08-22T04:44:16.201Z,9.40
2022-08-22T04:46:46.971Z,13.20
2022-08-22T04:49:18.022Z,11.60
2022-08-22T04:51:48.064Z,12.80
2022-08-22T04:54:25.861Z,11.80
2022-08-22T04:57:03.579Z,9.60
2022-08-22T04:59:31.465Z,12.60
2022-08-22T05:02:06.558Z,13.00
2022-08-22T05:04:36.884Z,12.80
2022-08-22T05:07:06.606Z,13.40
2022-08-22T05:09:36.410Z,12.80
2022-08-22T05:12:07.466Z,11.20
2022-08-22T05:14:37.959Z,12.80
2022-08-22T05:17:08.715Z,13.00
2022-08-22T05:19:40.023Z,12.75
2022-08-22T05:22:08.188Z,13.40
2022-08-22T05:24:38.693Z,13.00
2022-08-22T05:27:11.374Z,12.20
2022-08-22T05:29:41.232Z,12.25
2022-08-22T05:32:13.514Z,13.50
2022-08-22T05:34:42.082Z,6.75
2022-08-22T05:37:11.292Z,9.00
2022-08-22T05:39:39.695Z,10.00
2022-08-22T05:42:08.359Z,9.75
2022-08-22T05:44:38.623Z,9.25
2022-08-22T05:47:08.876Z,9.75
2022-08-22T05:49:40.034Z,6.00
2022-08-22T05:52:16.674Z,8.25
2022-08-22T05:54:50.569Z,9.00
2022-08-22T05:57:22.230Z,7.25
2022-08-22T05:59:50.226Z,7.00
2022-08-22T06:02:20.226Z,7.00
2022-08-22T06:04:52.016Z,7.50
2022-08-22T06:07:22.169Z,6.50
2022-08-22T06:10:18.864Z,4.00
2022-08-22T06:12:50.984Z,7.00
2022-08-22T06:15:21.301Z,8.00
2022-08-22T06:17:50.237Z,7.00
2022-08-22T06:20:21.876Z,10.00
2022-08-22T06:22:53.748Z,7.75
2022-08-22T06:25:24.273Z,8.00
2022-08-22T06:27:52.868Z,5.75
2022-08-22T06:30:21.076Z,5.00
2022-08-22T06:32:58.922Z,5.00
2022-08-22T06:35:50.771Z,5.00
2022-08-22T06:38:18.842Z,6.50
2022-08-22T06:40:47.077Z,7.00
2022-08-22T06:43:15.566Z,5.50
2022-08-22T06:45:43.446Z,5.50
2022-08-22T06:48:16.252Z,7.50
2022-08-22T06:50:46.794Z,4.00
2022-08-22T06:53:16.688Z,7.00
2022-08-22T06:55:46.729Z,4.00
2022-08-22T06:58:17.696Z,5.00
2022-08-22T07:00:53.573Z,5.00
2022-08-22T07:03:35.369Z,7.00
2022-08-22T07:06:05.617Z,7.00
2022-08-22T07:08:38.894Z,4.25
2022-08-22T07:11:11.780Z,7.00
2022-08-22T07:13:40.262Z,7.25
2022-08-22T07:16:11.033Z,8.25
2022-08-22T07:18:47.932Z,7.00
2022-08-22T07:21:27.318Z,7.00
2022-08-22T07:23:55.652Z,7.00
2022-08-22T07:26:29.361Z,6.25
2022-08-22T07:28:59.234Z,5.50
2022-08-22T07:31:38.455Z,8.00
2022-08-22T07:34:15.766Z,5.75
2022-08-22T07:36:47.541Z,5.75
2022-08-22T07:39:26.134Z,7.25
2022-08-22T07:42:02.865Z,6.00
2022-08-22T07:44:33.407Z,8.25
2022-08-22T07:47:02.630Z,5.00
2022-08-22T07:49:40.698Z,5.00
2022-08-22T07:52:19.271Z,4.00
2022-08-22T07:54:50.805Z,5.00
2022-08-22T07:57:23.203Z,5.00
2022-08-22T07:59:53.505Z,5.25
2022-08-22T08:02:23.112Z,5.00
2022-08-22T08:04:53.455Z,5.50
2022-08-22T08:07:23.993Z,5.00
2022-08-22T08:09:54.643Z,5.50
2022-08-22T08:12:26.384Z,6.00
2022-08-22T08:14:55.023Z,1.75
2022-08-22T08:17:26.892Z,4.50
2022-08-22T08:19:56.950Z,4.75
2022-08-22T08:22:27.660Z,5.00
2022-08-22T08:24:56.921Z,5.00
2022-08-22T08:27:43.277Z,3.25
2022-08-22T08:30:17.746Z,3.25
2022-08-22T08:32:49.016Z,6.00
2022-08-22T08:35:20.377Z,5.50
2022-08-22T08:37:51.446Z,3.00
2022-08-22T08:40:30.236Z,5.00
2022-08-22T08:43:24.830Z,4.00
2022-08-22T08:46:55.281Z,5.00
2022-08-22T08:49:39.614Z,4.50
2022-08-22T08:52:24.404Z,4.00
2022-08-22T08:55:20.046Z,2.00
2022-08-22T08:58:06.795Z,2.00
2022-08-22T09:00:49.885Z,5.00
2022-08-22T09:03:30.939Z,1.00
2022-08-22T09:06:19.787Z,3.00
2022-08-22T09:08:58.048Z,5.00
2022-08-22T09:11:53.331Z,3.00
2022-08-22T09:14:32.466Z,3.00
2022-08-22T09:17:15.029Z,5.00
2022-08-22T09:19:56.046Z,4.20
2022-08-22T09:22:50.527Z,10.25
2022-08-22T09:25:25.768Z,5.00
2022-08-22T09:27:59.481Z,7.50
2022-08-22T09:30:44.722Z,6.00
2022-08-22T09:33:14.708Z,5.50
2022-08-22T09:35:47.979Z,6.00
2022-08-22T09:38:40.815Z,6.50
2022-08-22T09:41:26.137Z,7.00
2022-08-22T09:44:02.787Z,6.00
2022-08-22T09:46:37.038Z,6.00
2022-08-22T09:49:07.315Z,5.25
2022-08-22T09:51:40.781Z,6.00
2022-08-22T09:54:31.577Z,8.00
2022-08-22T09:57:19.065Z,7.00
2022-08-22T10:00:16.828Z,6.00
2022-08-22T10:02:58.618Z,9.00
2022-08-22T10:05:39.503Z,7.00
2022-08-22T10:08:14.058Z,8.00
2022-08-22T10:10:54.838Z,10.00
2022-08-22T10:13:32.792Z,7.00
2022-08-22T10:16:16.173Z,6.00
2022-08-22T10:18:53.835Z,7.00
2022-08-22T10:21:32.392Z,7.00
2022-08-22T10:24:07.245Z,7.00
2022-08-22T10:26:39.483Z,7.00
2022-08-22T10:29:39.077Z,7.40
2022-08-22T10:32:27.631Z,8.00
2022-08-22T10:34:57.801Z,7.00
2022-08-22T10:37:30.462Z,6.20
2022-08-22T10:40:02.752Z,7.00
2022-08-22T10:42:35.173Z,6.80
2022-08-22T10:45:24.025Z,10.00
2022-08-22T10:48:35.718Z,6.00
2022-08-22T10:51:13.259Z,7.00
2022-08-22T10:53:53.556Z,7.20
2022-08-22T10:56:27.586Z,3.40
2022-08-22T10:58:56.842Z,6.00
2022-08-22T11:01:38.314Z,7.60
2022-08-22T11:04:16.637Z,8.00
2022-08-22T11:06:46.321Z,7.00
2022-08-22T11:09:17.198Z,6.00
2022-08-22T11:11:47.913Z,8.00
2022-08-22T11:14:43.381Z,7.80
2022-08-22T11:17:31.191Z,7.20
2022-08-22T11:20:16.567Z,6.00
2022-08-22T11:22:50.828Z,7.80
2022-08-22T11:25:38.661Z,7.20
2022-08-22T11:28:22.068Z,6.40
2022-08-22T11:30:58.503Z,6.40
2022-08-22T11:33:39.081Z,6.00
2022-08-22T11:36:40.861Z,8.60
2022-08-22T11:39:21.093Z,6.20
2022-08-22T11:41:54.973Z,8.00
2022-08-22T11:44:27.691Z,6.60
2022-08-22T11:46:58.095Z,8.40
2022-08-22T11:49:40.620Z,8.40
2022-08-22T11:52:28.735Z,6.20
2022-08-22T11:55:07.146Z,4.00
2022-08-22T11:57:37.221Z,5.00
2022-08-22T12:00:29.351Z,7.00
2022-08-22T12:03:23.359Z,8.00
2022-08-22T12:05:52.892Z,7.80
2022-08-22T12:08:28.324Z,8.00
2022-08-22T12:10:59.075Z,8.80
2022-08-22T12:13:37.143Z,8.00
2022-08-22T12:16:10.502Z,5.80
2022-08-22T12:18:53.207Z,6.00
2022-08-22T12:21:49.629Z,5.00
2022-08-22T12:24:33.403Z,8.00
2022-08-22T12:27:28.751Z,8.80
2022-08-22T12:30:05.642Z,8.00
2022-08-22T12:33:23.160Z,6.80
2022-08-22T12:35:58.026Z,8.40
2022-08-22T12:38:41.388Z,8.40
2022-08-22T12:41:37.306Z,8.00
2022-08-22T12:44:20.411Z,4.80
2022-08-22T12:46:54.926Z,7.60
2022-08-22T12:49:30.415Z,6.00
2022-08-22T12:52:06.067Z,6.00
2022-08-22T12:54:50.265Z,7.60
2022-08-22T12:57:26.223Z,5.60
2022-08-22T12:59:55.716Z,4.80
2022-08-22T13:02:27.221Z,8.00
2022-08-22T13:04:56.590Z,5.00
2022-08-22T13:07:26.787Z,6.00
2022-08-22T13:09:59.128Z,5.00
2022-08-22T13:12:31.024Z,7.40
2022-08-22T13:15:01.843Z,6.60
2022-08-22T13:17:31.020Z,5.00
2022-08-22T13:20:09.960Z,6.00
2022-08-22T13:22:40.262Z,7.20
2022-08-22T13:25:25.975Z,6.60
2022-08-22T13:27:56.955Z,7.20
2022-08-22T13:30:29.967Z,6.00
2022-08-22T13:33:03.348Z,6.40
2022-08-22T13:35:37.366Z,5.20
2022-08-22T13:38:13.997Z,5.00
2022-08-22T13:40:46.638Z,2.20
2022-08-22T13:43:20.845Z,4.60
2022-08-22T13:46:01.992Z,5.00
2022-08-22T13:48:46.827Z,5.80
2022-08-22T13:51:17.517Z,5.20
2022-08-22T13:54:00.885Z,4.00
2022-08-22T13:56:34.116Z,5.00
2022-08-22T13:59:40.056Z,5.00
2022-08-22T14:02:07.322Z,4.80
2022-08-22T14:04:37.829Z,4.00
2022-08-22T14:07:24.239Z,5.40
2022-08-22T14:09:56.666Z,5.00
2022-08-22T14:12:26.913Z,5.20
2022-08-22T14:15:00.835Z,5.40
2022-08-22T14:17:31.258Z,5.40
2022-08-22T14:20:01.568Z,4.80
2022-08-22T14:22:31.730Z,5.00
2022-08-22T14:25:02.407Z,6.00
2022-08-22T14:27:31.733Z,4.20
2022-08-22T14:30:03.003Z,4.80
2022-08-22T14:32:41.855Z,4.80
2022-08-22T14:35:16.946Z,7.20
2022-08-22T14:37:54.490Z,4.20
2022-08-22T14:40:24.499Z,5.20
2022-08-22T14:42:55.640Z,6.00
2022-08-22T14:45:26.866Z,5.00
2022-08-22T14:48:30.617Z,5.80
2022-08-22T14:50:47.546Z,6.00
2022-08-22T14:53:25.071Z,6.00
2022-08-22T14:55:57.431Z,6.00
2022-08-22T14:58:26.442Z,6.60
2022-08-22T15:00:58.079Z,5.00
2022-08-22T15:03:27.415Z,6.00
2022-08-22T15:05:58.149Z,5.20
2022-08-22T15:08:30.448Z,4.80
2022-08-22T15:11:13.639Z,5.20
2022-08-22T15:13:51.539Z,5.60
2022-08-22T15:16:25.384Z,4.80
2022-08-22T15:18:53.350Z,6.40
2022-08-22T15:21:24.766Z,5.00
2022-08-22T15:23:54.506Z,6.00
2022-08-22T15:26:30.617Z,1.80
2022-08-22T15:29:04.910Z,3.00
2022-08-22T15:31:34.254Z,0.40
2022-08-22T15:34:13.514Z,2.00
2022-08-22T15:37:11.975Z,2.00
2022-08-22T15:40:02.866Z,4.00
2022-08-22T15:42:37.841Z,4.00
2022-08-22T15:45:06.665Z,3.60
2022-08-22T15:47:39.687Z,4.00
2022-08-22T15:50:09.478Z,4.00
2022-08-22T15:53:07.861Z,6.80
2022-08-22T15:55:36.970Z,3.20
2022-08-22T15:58:09.357Z,3.80
2022-08-22T16:00:43.833Z,4.20
2022-08-22T16:03:25.525Z,4.00
2022-08-22T16:05:56.079Z,5.00
2022-08-22T16:08:26.675Z,4.00
2022-08-22T16:10:57.397Z,4.40
2022-08-22T16:13:40.430Z,5.00
2022-08-22T16:16:11.201Z,3.00
2022-08-22T16:19:17.440Z,2.00
2022-08-22T16:22:05.875Z,3.00
2022-08-22T16:24:38.016Z,4.00
2022-08-22T16:27:18.553Z,5.00
2022-08-22T16:29:46.570Z,5.00
2022-08-22T16:32:14.498Z,5.00
2022-08-22T16:34:45.890Z,5.00
2022-08-22T16:37:35.190Z,6.00
2022-08-22T16:40:14.554Z,4.40
2022-08-22T16:42:44.109Z,5.00
2022-08-22T16:45:17.702Z,4.20
2022-08-22T16:47:54.534Z,4.00
2022-08-22T16:50:33.048Z,4.00
2022-08-22T16:53:06.593Z,4.80
2022-08-22T16:56:10.619Z,4.20
2022-08-22T16:58:57.824Z,4.40
2022-08-22T17:01:41.377Z,5.00
2022-08-22T17:04:15.602Z,7.00
2022-08-22T17:06:54.538Z,7.80
2022-08-22T17:09:45.945Z,7.00
2022-08-22T17:12:20.434Z,7.00
2022-08-22T17:14:52.059Z,7.00
2022-08-22T17:17:25.531Z,8.80
2022-08-22T17:20:11.651Z,9.00
2022-08-22T17:22:42.993Z,8.00
2022-08-22T17:25:18.839Z,9.00
2022-08-22T17:27:50.015Z,8.00
2022-08-22T17:30:22.651Z,9.00
2022-08-22T17:33:00.295Z,9.00
2022-08-22T17:35:35.148Z,7.60
2022-08-22T17:38:09.401Z,9.00
2022-08-22T17:40:39.690Z,8.40
2022-08-22T17:43:15.054Z,8.20
2022-08-22T17:45:50.778Z,8.00
2022-08-22T17:48:20.453Z,10.20
2022-08-22T17:50:50.251Z,7.00
2022-08-22T17:53:28.792Z,8.00
2022-08-22T17:56:01.787Z,9.00
2022-08-22T17:58:43.442Z,8.00
2022-08-22T18:01:14.916Z,9.25
2022-08-22T18:03:46.351Z,8.25
2022-08-22T18:06:19.455Z,9.50
2022-08-22T18:11:42.473Z,10.00
2022-08-22T18:14:13.203Z,11.50
2022-08-22T18:16:45.580Z,8.25
2022-08-22T18:19:15.098Z,8.00
2022-08-22T18:21:44.348Z,11.00
2022-08-22T18:24:20.241Z,10.25
2022-08-22T18:26:53.063Z,10.75
2022-08-22T18:29:22.102Z,10.00
2022-08-22T18:31:52.723Z,8.00
2022-08-22T18:34:27.494Z,9.00
2022-08-22T18:36:58.696Z,9.00
2022-08-22T18:39:30.324Z,10.00
2022-08-22T18:42:01.671Z,10.25
2022-08-22T18:44:32.373Z,10.00
2022-08-22T18:47:00.394Z,8.75
2022-08-22T18:49:41.961Z,9.00
2022-08-22T18:52:28.824Z,8.50
2022-08-22T18:55:08.926Z,10.00
2022-08-22T18:57:48.377Z,7.25
2022-08-22T19:00:19.610Z,7.00
2022-08-22T19:03:15.705Z,9.00
2022-08-22T19:06:14.804Z,9.25
2022-08-22T19:09:10.547Z,9.25
2022-08-22T19:11:46.772Z,10.00
2022-08-22T19:14:26.130Z,8.50
2022-08-22T19:17:19.631Z,9.00
2022-08-22T19:20:12.263Z,8.00
2022-08-22T19:22:40.422Z,9.00
2022-08-22T19:25:20.479Z,9.00
2022-08-22T19:28:24.388Z,7.00
2022-08-22T19:30:53.069Z,8.00
2022-08-22T19:33:29.256Z,7.00
2022-08-22T19:36:13.222Z,5.67
2022-08-22T19:38:56.589Z,11.00
2022-08-22T19:41:47.472Z,9.00
2022-08-22T19:44:35.434Z,6.00
2022-08-22T19:47:07.424Z,9.75
2022-08-22T19:49:37.294Z,5.75
2022-08-22T19:52:13.419Z,7.00
2022-08-22T19:54:46.171Z,9.25
2022-08-22T19:57:16.009Z,7.00
2022-08-22T19:59:51.112Z,8.00
2022-08-22T20:02:25.525Z,9.75
2022-08-22T20:05:18.520Z,6.00
2022-08-22T20:07:58.538Z,5.50
2022-08-22T20:10:29.647Z,9.00
2022-08-22T20:13:07.660Z,10.00
2022-08-22T20:16:10.994Z,9.00
2022-08-22T20:19:15.022Z,9.25
2022-08-22T20:21:58.249Z,10.00
2022-08-22T20:24:31.282Z,7.25
2022-08-22T20:27:15.783Z,9.00
2022-08-22T20:29:49.208Z,10.00
2022-08-22T20:32:20.277Z,5.75
2022-08-22T20:34:48.217Z,7.25
2022-08-22T20:37:32.468Z,8.75
2022-08-22T20:40:54.531Z,11.00
2022-08-22T20:43:10.438Z,8.00
2022-08-22T20:45:40.141Z,7.50
2022-08-22T20:48:10.934Z,9.00
2022-08-22T20:50:48.526Z,9.00
2022-08-22T20:53:17.572Z,9.00
2022-08-22T20:55:53.501Z,9.25
2022-08-22T20:58:22.782Z,9.25
2022-08-22T21:00:53.151Z,10.50
2022-08-22T21:03:30.520Z,11.25
2022-08-22T21:05:58.713Z,13.00
2022-08-22T21:08:27.362Z,10.50
2022-08-22T21:11:15.384Z,13.00
2022-08-22T21:13:43.233Z,10.50
2022-08-22T21:16:13.707Z,6.50
2022-08-22T21:18:45.842Z,8.50
2022-08-22T21:21:17.426Z,7.25
2022-08-22T21:23:47.156Z,9.50
2022-08-22T21:26:21.497Z,9.50
2022-08-22T21:28:57.331Z,7.75
2022-08-22T21:31:26.530Z,7.25
2022-08-22T21:33:56.571Z,7.25
2022-08-22T21:36:25.276Z,10.00
2022-08-22T21:38:57.782Z,7.00
2022-08-22T21:41:28.944Z,10.00
2022-08-22T21:43:56.814Z,10.25
2022-08-22T21:46:26.316Z,7.25
2022-08-22T21:49:03.501Z,8.50
2022-08-22T21:51:41.972Z,10.00
2022-08-22T21:54:39.655Z,8.75
2022-08-22T21:57:35.545Z,8.50
2022-08-22T22:00:07.446Z,6.00
2022-08-22T22:02:37.913Z,8.75
2022-08-22T22:05:11.375Z,9.25
2022-08-22T22:07:40.228Z,8.00
2022-08-22T22:10:09.236Z,9.50
2022-08-22T22:12:39.716Z,9.00
2022-08-22T22:15:08.524Z,9.00
2022-08-22T22:17:36.493Z,8.50
2022-08-22T22:20:05.727Z,8.00
2022-08-22T22:22:38.148Z,9.50
2022-08-22T22:25:40.644Z,10.25
2022-08-22T22:28:03.607Z,12.00
2022-08-22T22:30:31.824Z,10.25
2022-08-22T22:33:00.673Z,12.25
2022-08-22T22:35:28.494Z,9.00
2022-08-22T22:37:57.952Z,10.00
2022-08-22T22:40:25.968Z,10.00
2022-08-22T22:42:54.289Z,8.00
2022-08-22T22:45:22.314Z,12.50
2022-08-22T22:47:50.208Z,11.75
2022-08-22T22:50:18.555Z,14.25
2022-08-22T22:52:46.392Z,28.00
2022-08-22T22:55:24.186Z,41.40
2022-08-22T22:57:58.951Z,39.00
2022-08-22T23:00:31.215Z,39.00
2022-08-22T23:03:00.343Z,31.40
2022-08-22T23:05:28.973Z,22.75
2022-08-22T23:07:57.076Z,22.75
2022-08-22T23:10:26.575Z,16.00
2022-08-22T23:12:54.526Z,12.00
2022-08-22T23:15:22.495Z,10.00
2022-08-22T23:17:50.477Z,12.00
2022-08-22T23:20:18.487Z,12.00
2022-08-22T23:22:46.379Z,8.00
2022-08-22T23:25:14.418Z,12.00
2022-08-22T23:27:43.761Z,8.75
2022-08-22T23:30:13.348Z,9.75
2022-08-22T23:32:41.301Z,8.50
2022-08-22T23:35:09.991Z,9.50
2022-08-22T23:37:37.867Z,8.00
2022-08-22T23:40:07.982Z,8.50
2022-08-22T23:42:35.939Z,9.00
2022-08-22T23:45:05.720Z,9.00
2022-08-22T23:47:33.586Z,7.00
2022-08-22T23:50:05.901Z,8.00
2022-08-22T23:52:34.341Z,9.00
2022-08-22T23:55:02.336Z,8.00
2022-08-22T23:57:30.190Z,8.25
2022-08-22T23:59:58.688Z,9.00
